createdAt,value
2018-12-22T00:00:16.717Z,99773.48
2018-12-22T00:02:47.664Z,99776.58
2018-12-22T00:05:18.653Z,99772.35
2018-12-22T00:07:50.639Z,99771.58
2018-12-22T00:10:21.438Z,99776.80
2018-12-22T00:12:52.206Z,99776.80
2018-12-22T00:15:23.270Z,99772.13
2018-12-22T00:17:54.176Z,99772.97
2018-12-22T00:20:25.150Z,99774.88
2018-12-22T00:22:56.266Z,99760.17
2018-12-22T00:25:27.096Z,99766.45
2018-12-22T00:27:57.674Z,99760.03
2018-12-22T00:30:28.347Z,99760.17
2018-12-22T00:32:59.303Z,99754.59
2018-12-22T00:35:29.981Z,99748.97
2018-12-22T00:38:00.937Z,99746.00
2018-12-22T00:40:31.621Z,99741.55
2018-12-22T00:43:02.412Z,99740.24
2018-12-22T00:45:33.080Z,99735.03
2018-12-22T00:48:03.938Z,99729.41
2018-12-22T00:50:34.971Z,99728.42
2018-12-22T00:53:05.627Z,99732.88
2018-12-22T00:55:36.350Z,99730.41
2018-12-22T00:58:07.207Z,99723.88
2018-12-22T01:00:38.152Z,99719.52
2018-12-22T01:03:09.158Z,99724.96
2018-12-22T01:05:39.916Z,99726.89
2018-12-22T01:08:10.763Z,99722.75
2018-12-22T01:10:41.660Z,99728.05
2018-12-22T01:13:12.465Z,99725.80
2018-12-22T01:15:43.344Z,99726.73
2018-12-22T01:18:14.066Z,99732.27
2018-12-22T01:20:45.031Z,99724.72
2018-12-22T01:23:15.935Z,99729.44
2018-12-22T01:25:46.826Z,99729.34
2018-12-22T01:28:17.695Z,99734.92
2018-12-22T01:30:48.359Z,99741.53
2018-12-22T01:33:19.285Z,99747.91
2018-12-22T01:35:50.001Z,99739.02
2018-12-22T01:38:21.056Z,99742.98
2018-12-22T01:40:51.994Z,99747.75
2018-12-22T01:43:22.837Z,99753.95
2018-12-22T01:45:53.736Z,99745.37
2018-12-22T01:48:24.424Z,99740.92
2018-12-22T01:50:55.459Z,99748.97
2018-12-22T01:53:26.208Z,99746.53
2018-12-22T01:55:57.048Z,99746.13
2018-12-22T01:58:27.890Z,99749.51
2018-12-22T02:00:58.710Z,99750.67
2018-12-22T02:03:29.707Z,99749.97
2018-12-22T02:06:00.456Z,99747.53
2018-12-22T02:08:31.178Z,99746.59
2018-12-22T02:11:02.131Z,99745.28
2018-12-22T02:13:32.915Z,99749.97
2018-12-22T02:16:03.599Z,99741.14
2018-12-22T02:18:34.391Z,99739.93
2018-12-22T02:21:05.076Z,99741.63
2018-12-22T02:23:36.045Z,99736.16
2018-12-22T02:26:06.822Z,99729.81
2018-12-22T02:28:38.904Z,99727.74
2018-12-22T02:31:09.580Z,99723.88
2018-12-22T02:33:40.518Z,99714.47
2018-12-22T02:36:11.250Z,99706.48
2018-12-22T02:38:42.504Z,99696.22
2018-12-22T02:41:13.349Z,99697.66
2018-12-22T02:43:44.132Z,99696.45
2018-12-22T02:46:14.730Z,99692.91
2018-12-22T02:48:45.443Z,99692.53
2018-12-22T02:51:16.188Z,99697.52
2018-12-22T02:53:47.114Z,99696.27
2018-12-22T02:56:17.959Z,99686.38
2018-12-22T02:58:48.862Z,99679.41
2018-12-22T03:01:20.479Z,99674.55
2018-12-22T03:03:51.465Z,99668.66
2018-12-22T03:06:22.416Z,99671.27
2018-12-22T03:08:53.312Z,99673.50
2018-12-22T03:11:24.275Z,99677.15
2018-12-22T03:13:54.856Z,99678.31
2018-12-22T03:16:25.712Z,99672.24
2018-12-22T03:18:56.621Z,99673.23
2018-12-22T03:21:27.436Z,99670.35
2018-12-22T03:23:58.228Z,99673.25
2018-12-22T03:26:29.015Z,99670.42
2018-12-22T03:28:59.973Z,99676.88
2018-12-22T03:31:30.569Z,99677.16
2018-12-22T03:34:01.318Z,99657.59
2018-12-22T03:36:32.059Z,99647.09
2018-12-22T03:39:03.117Z,99635.80
2018-12-22T03:41:34.043Z,99635.39
2018-12-22T03:44:05.014Z,99640.30
2018-12-22T03:46:35.929Z,99633.42
2018-12-22T03:49:06.814Z,99635.94
2018-12-22T03:51:37.770Z,99634.18
2018-12-22T03:54:08.652Z,99634.94
2018-12-22T03:56:39.438Z,99618.20
2018-12-22T03:59:10.230Z,99614.89
2018-12-22T04:01:40.847Z,99615.17
2018-12-22T04:04:11.680Z,99621.00
2018-12-22T04:06:42.501Z,99618.30
2018-12-22T04:09:13.423Z,99622.30
2018-12-22T04:11:44.096Z,99617.63
2018-12-22T04:14:14.842Z,99628.19
2018-12-22T04:16:45.619Z,99628.67
2018-12-22T04:19:16.563Z,99633.10
2018-12-22T04:21:47.621Z,99639.02
2018-12-22T04:24:18.441Z,99636.11
2018-12-22T04:26:49.187Z,99639.17
2018-12-22T04:29:19.908Z,99648.40
2018-12-22T04:31:50.861Z,99646.70
2018-12-22T04:34:21.721Z,99643.48
2018-12-22T04:36:52.531Z,99640.78
2018-12-22T04:39:23.663Z,99638.94
2018-12-22T04:41:54.445Z,99649.46
2018-12-22T04:44:26.134Z,99649.55
2018-12-22T04:46:56.957Z,99640.11
2018-12-22T04:49:29.319Z,99634.13
2018-12-22T04:52:00.012Z,99630.89
2018-12-22T04:54:30.945Z,99628.70
2018-12-22T04:57:01.699Z,99629.67
2018-12-22T04:59:32.406Z,99625.97
2018-12-22T05:02:04.094Z,99620.86
2018-12-22T05:04:34.906Z,99627.06
2018-12-22T05:07:06.430Z,99622.48
2018-12-22T05:09:37.314Z,99615.31
2018-12-22T05:12:08.303Z,99617.12
2018-12-22T05:14:38.863Z,99624.71
2018-12-22T05:17:09.507Z,99625.52
2018-12-22T05:19:40.260Z,99623.45
2018-12-22T05:22:11.033Z,99627.26
2018-12-22T05:24:41.988Z,99629.11
2018-12-22T05:27:13.200Z,99640.16
2018-12-22T05:29:51.734Z,99629.06
2018-12-22T05:32:17.594Z,99635.28
2018-12-22T05:34:48.489Z,99635.59
2018-12-22T05:37:19.556Z,99640.05
2018-12-22T05:39:50.368Z,99646.88
2018-12-22T05:42:20.982Z,99644.17
2018-12-22T05:44:52.025Z,99644.84
2018-12-22T05:47:22.946Z,99656.55
2018-12-22T05:49:53.932Z,99650.39
2018-12-22T05:52:24.584Z,99638.44
2018-12-22T05:54:55.550Z,99634.81
2018-12-22T05:57:26.553Z,99623.77
2018-12-22T06:00:00.833Z,99624.31
2018-12-22T06:02:30.546Z,99620.49
2018-12-22T06:05:02.693Z,99620.29
2018-12-22T06:07:33.372Z,99618.89
2018-12-22T06:10:04.115Z,99619.30
2018-12-22T06:12:34.974Z,99622.75
2018-12-22T06:15:06.373Z,99610.23
2018-12-22T06:17:37.305Z,99604.98
2018-12-22T06:20:10.962Z,99603.41
2018-12-22T06:22:41.723Z,99605.02
2018-12-22T06:25:12.443Z,99611.90
2018-12-22T06:27:43.275Z,99611.20
2018-12-22T06:30:14.457Z,99613.71
2018-12-22T06:32:45.370Z,99619.19
2018-12-22T06:35:16.202Z,99615.47
2018-12-22T06:37:46.969Z,99617.83
2018-12-22T06:40:17.833Z,99631.20
2018-12-22T06:42:48.784Z,99635.22
2018-12-22T06:45:19.645Z,99635.13
2018-12-22T06:47:50.592Z,99639.53
2018-12-22T06:50:21.526Z,99641.30
2018-12-22T06:52:52.389Z,99646.88
2018-12-22T06:55:23.100Z,99650.05
2018-12-22T06:57:53.996Z,99649.28
2018-12-22T07:00:24.856Z,99641.42
2018-12-22T07:02:55.666Z,99643.34
2018-12-22T07:05:26.544Z,99643.48
2018-12-22T07:07:57.401Z,99639.92
2018-12-22T07:10:28.398Z,99646.36
2018-12-22T07:12:59.532Z,99641.68
2018-12-22T07:15:30.364Z,99646.36
2018-12-22T07:18:01.146Z,99647.37
2018-12-22T07:20:31.886Z,99651.94
2018-12-22T07:23:03.021Z,99657.82
2018-12-22T07:25:33.871Z,99662.29
2018-12-22T07:28:04.921Z,99658.27
2018-12-22T07:30:35.864Z,99656.05
2018-12-22T07:33:07.460Z,99660.89
2018-12-22T07:35:38.498Z,99663.89
2018-12-22T07:38:09.831Z,99662.84
2018-12-22T07:40:41.046Z,99662.02
2018-12-22T07:43:12.889Z,99660.36
2018-12-22T07:45:44.555Z,99663.56
2018-12-22T07:48:15.353Z,99656.96
2018-12-22T07:50:47.268Z,99659.45
2018-12-22T07:53:18.255Z,99660.42
2018-12-22T07:55:49.055Z,99652.67
2018-12-22T07:58:20.351Z,99657.91
2018-12-22T08:00:51.253Z,99656.96
2018-12-22T08:03:22.342Z,99655.98
2018-12-22T08:05:54.035Z,99644.27
2018-12-22T08:08:25.681Z,99642.02
2018-12-22T08:10:56.768Z,99650.32
2018-12-22T08:13:28.139Z,99660.00
2018-12-22T08:15:59.185Z,99652.48
2018-12-22T08:18:30.108Z,99650.75
2018-12-22T08:21:00.849Z,99651.14
2018-12-22T08:23:31.836Z,99649.95
2018-12-22T08:26:03.479Z,99646.52
2018-12-22T08:28:34.438Z,99641.46
2018-12-22T08:31:05.942Z,99639.41
2018-12-22T08:33:37.351Z,99647.61
2018-12-22T08:36:08.224Z,99659.02
2018-12-22T08:38:39.306Z,99652.64
2018-12-22T08:41:10.376Z,99657.32
2018-12-22T08:43:41.267Z,99652.94
2018-12-22T08:46:12.180Z,99652.74
2018-12-22T08:48:43.562Z,99656.79
2018-12-22T08:51:15.725Z,99659.04
2018-12-22T08:53:46.677Z,99653.25
2018-12-22T08:56:20.194Z,99652.41
2018-12-22T08:58:51.306Z,99654.72
2018-12-22T09:01:22.262Z,99659.40
2018-12-22T09:03:53.371Z,99671.56
2018-12-22T09:06:24.614Z,99661.95
2018-12-22T09:08:55.367Z,99658.20
2018-12-22T09:11:26.724Z,99668.58
2018-12-22T09:13:58.117Z,99686.51
2018-12-22T09:16:29.109Z,99692.85
2018-12-22T09:19:00.247Z,99674.38
2018-12-22T09:21:31.795Z,99678.30
2018-12-22T09:24:02.599Z,99674.30
2018-12-22T09:26:33.591Z,99668.30
2018-12-22T09:29:04.841Z,99667.38
2018-12-22T09:31:35.816Z,99673.27
2018-12-22T09:34:13.318Z,99671.88
2018-12-22T09:36:39.464Z,99681.70
2018-12-22T09:39:11.300Z,99667.40
2018-12-22T09:41:42.938Z,99659.42
2018-12-22T09:44:14.153Z,99655.49
2018-12-22T09:46:45.134Z,99643.36
2018-12-22T09:49:16.003Z,99653.34
2018-12-22T09:51:46.698Z,99665.41
2018-12-22T09:54:18.382Z,99667.25
2018-12-22T09:56:49.330Z,99656.59
2018-12-22T09:59:20.387Z,99655.52
2018-12-22T10:01:51.696Z,99662.61
2018-12-22T10:04:22.948Z,99659.71
2018-12-22T10:06:55.127Z,99648.77
2018-12-22T10:09:26.196Z,99645.41
2018-12-22T10:11:57.400Z,99648.55
2018-12-22T10:14:28.394Z,99651.73
2018-12-22T10:16:59.930Z,99652.03
2018-12-22T10:19:30.709Z,99650.14
2018-12-22T10:22:01.815Z,99642.56
2018-12-22T10:24:32.877Z,99646.74
2018-12-22T10:27:03.906Z,99639.38
2018-12-22T10:29:35.152Z,99630.90
2018-12-22T10:32:06.712Z,99642.34
2018-12-22T10:34:38.244Z,99631.01
2018-12-22T10:37:09.062Z,99630.28
2018-12-22T10:39:40.321Z,99618.48
2018-12-22T10:42:11.233Z,99610.27
2018-12-22T10:44:42.310Z,99614.47
2018-12-22T10:47:13.645Z,99599.15
2018-12-22T10:49:45.606Z,99602.23
2018-12-22T10:52:17.261Z,99594.54
2018-12-22T10:54:48.993Z,99581.71
2018-12-22T10:57:19.917Z,99578.02
2018-12-22T10:59:51.448Z,99575.91
2018-12-22T11:02:23.784Z,99580.63
2018-12-22T11:04:54.844Z,99569.27
2018-12-22T11:07:25.519Z,99572.63
2018-12-22T11:09:56.858Z,99566.66
2018-12-22T11:12:27.900Z,99568.41
2018-12-22T11:14:59.598Z,99571.17
2018-12-22T11:17:30.732Z,99569.52
2018-12-22T11:20:02.263Z,99559.19
2018-12-22T11:22:34.144Z,99550.78
2018-12-22T11:25:10.987Z,99564.31
2018-12-22T11:27:42.665Z,99559.92
2018-12-22T11:30:18.942Z,99557.70
2018-12-22T11:32:50.480Z,99564.63
2018-12-22T11:35:21.597Z,99571.29
2018-12-22T11:37:53.809Z,99562.80
2018-12-22T11:40:25.302Z,99561.15
2018-12-22T11:42:57.386Z,99561.96
2018-12-22T11:45:28.531Z,99559.42
2018-12-22T11:49:23.503Z,99551.97
2018-12-22T11:51:55.463Z,99541.39
2018-12-22T11:54:26.697Z,99546.41
2018-12-22T11:56:57.934Z,99542.50
2018-12-22T11:59:30.906Z,99529.75
2018-12-22T12:02:09.469Z,99530.64
2018-12-22T12:04:36.715Z,99522.02
2018-12-22T12:07:07.866Z,99521.23
2018-12-22T12:09:39.149Z,99521.09
2018-12-22T12:12:11.399Z,99529.98
2018-12-22T12:14:42.954Z,99519.52
2018-12-22T12:17:34.428Z,99532.55
2018-12-22T12:20:05.728Z,99518.96
2018-12-22T12:22:36.990Z,99522.47
2018-12-22T12:25:10.162Z,99526.09
2018-12-22T12:27:41.169Z,99517.36
2018-12-22T12:30:15.039Z,99516.83
2018-12-22T12:32:45.788Z,99515.31
2018-12-22T12:35:17.012Z,99512.94
2018-12-22T12:37:47.887Z,99518.31
2018-12-22T12:40:18.994Z,99517.98
2018-12-22T12:42:50.293Z,99516.08
2018-12-22T12:45:21.360Z,99508.51
2018-12-22T12:47:52.483Z,99507.09
2018-12-22T12:50:25.177Z,99512.23
2018-12-22T12:52:56.413Z,99521.33
2018-12-22T12:55:27.454Z,99520.39
2018-12-22T12:57:58.447Z,99515.14
2018-12-22T13:00:29.804Z,99505.42
2018-12-22T13:03:01.795Z,99518.53
2018-12-22T13:05:32.844Z,99520.25
2018-12-22T13:08:03.884Z,99507.44
2018-12-22T13:10:34.886Z,99513.55
2018-12-22T13:13:21.004Z,99504.00
2018-12-22T13:15:52.286Z,99506.13
2018-12-22T13:18:23.657Z,99504.60
2018-12-22T13:20:54.815Z,99503.74
2018-12-22T13:23:25.740Z,99499.45
2018-12-22T13:25:56.305Z,99511.31
2018-12-22T13:28:27.407Z,99495.84
2018-12-22T13:30:58.266Z,99502.88
2018-12-22T13:33:29.768Z,99502.80
2018-12-22T13:36:01.536Z,99509.31
2018-12-22T13:38:35.915Z,99515.32
2018-12-22T13:41:07.328Z,99508.41
2018-12-22T13:43:38.366Z,99509.70
2018-12-22T13:46:12.105Z,99510.23
2018-12-22T13:48:43.377Z,99510.76
2018-12-22T13:51:14.891Z,99513.64
2018-12-22T13:53:46.261Z,99512.80
2018-12-22T13:56:17.255Z,99516.87
2018-12-22T13:58:48.846Z,99519.92
2018-12-22T14:01:23.345Z,99517.29
2018-12-22T14:03:58.529Z,99528.45
2018-12-22T14:06:36.021Z,99531.20
2018-12-22T14:09:09.228Z,99526.36
2018-12-22T14:11:40.754Z,99527.56
2018-12-22T14:14:18.234Z,99521.78
2018-12-22T14:16:59.095Z,99528.05
2018-12-22T14:19:30.689Z,99530.25
2018-12-22T14:22:01.901Z,99529.90
2018-12-22T14:24:43.100Z,99543.06
2018-12-22T14:27:14.166Z,99537.88
2018-12-22T14:29:45.146Z,99535.41
2018-12-22T14:32:16.576Z,99523.45
2018-12-22T14:35:31.204Z,99527.85
2018-12-22T14:38:02.394Z,99516.98
2018-12-22T14:40:33.451Z,99512.73
2018-12-22T14:43:04.810Z,99517.40
2018-12-22T14:45:35.991Z,99513.11
2018-12-22T14:48:07.732Z,99506.64
2018-12-22T14:50:38.673Z,99506.64
2018-12-22T14:53:10.560Z,99511.84
2018-12-22T14:55:41.666Z,99509.33
2018-12-22T14:58:18.839Z,99497.72
2018-12-22T15:00:50.093Z,99506.39
2018-12-22T15:03:21.311Z,99505.50
2018-12-22T15:05:54.163Z,99521.45
2018-12-22T15:08:25.614Z,99522.03
2018-12-22T15:10:57.211Z,99521.16
2018-12-22T15:13:28.358Z,99524.47
2018-12-22T15:16:03.221Z,99519.91
2018-12-22T15:18:34.506Z,99518.95
2018-12-22T15:21:06.134Z,99530.25
2018-12-22T15:23:38.000Z,99528.89
2018-12-22T15:26:10.166Z,99531.53
2018-12-22T15:28:47.170Z,99530.47
2018-12-22T15:31:15.280Z,99527.45
2018-12-22T15:33:47.298Z,99532.38
2018-12-22T15:36:18.909Z,99543.95
2018-12-22T15:38:52.503Z,99527.58
2018-12-22T15:41:23.989Z,99532.22
2018-12-22T15:43:55.682Z,99534.78
2018-12-22T15:46:26.767Z,99541.55
2018-12-22T15:48:59.033Z,99540.65
2018-12-22T15:51:30.305Z,99542.09
2018-12-22T15:54:01.903Z,99538.60
2018-12-22T15:56:34.291Z,99532.70
2018-12-22T15:59:05.478Z,99536.72
2018-12-22T16:01:36.956Z,99532.62
2018-12-22T16:04:08.468Z,99545.40
2018-12-22T16:06:39.574Z,99532.57
2018-12-22T16:09:10.900Z,99537.30
2018-12-22T16:11:41.944Z,99532.19
2018-12-22T16:14:12.920Z,99536.45
2018-12-22T16:16:44.412Z,99535.59
2018-12-22T16:19:16.474Z,99544.72
2018-12-22T16:21:47.522Z,99548.42
2018-12-22T16:24:19.355Z,99548.25
2018-12-22T16:26:50.256Z,99549.61
2018-12-22T16:29:32.604Z,99552.98
2018-12-22T16:32:04.085Z,99557.25
2018-12-22T16:34:35.636Z,99550.86
2018-12-22T16:37:06.573Z,99552.56
2018-12-22T16:39:39.793Z,99556.28
2018-12-22T16:42:10.673Z,99557.58
2018-12-22T16:44:42.982Z,99554.91
2018-12-22T16:47:13.777Z,99555.66
2018-12-22T16:49:45.518Z,99564.27
2018-12-22T16:52:16.720Z,99555.09
2018-12-22T16:54:49.023Z,99554.67
2018-12-22T16:57:20.185Z,99550.53
2018-12-22T16:59:51.391Z,99561.09
2018-12-22T17:02:34.891Z,99559.33
2018-12-22T17:05:09.700Z,99558.59
2018-12-22T17:07:41.782Z,99554.09
2018-12-22T17:10:12.959Z,99547.55
2018-12-22T17:12:44.223Z,99556.19
2018-12-22T17:15:21.887Z,99554.88
2018-12-22T17:17:48.401Z,99550.27
2018-12-22T17:20:19.914Z,99557.28
2018-12-22T17:23:20.985Z,99569.45
2018-12-22T17:25:58.750Z,99561.98
2018-12-22T17:28:30.143Z,99566.77
2018-12-22T17:31:01.121Z,99566.09
2018-12-22T17:33:32.158Z,99577.48
2018-12-22T17:36:02.981Z,99574.97
2018-12-22T17:38:33.805Z,99578.23
2018-12-22T17:41:05.164Z,99572.06
2018-12-22T17:43:38.247Z,99563.53
2018-12-22T17:46:09.786Z,99566.44
2018-12-22T17:48:41.392Z,99561.02
2018-12-22T17:51:14.640Z,99561.66
2018-12-22T17:53:46.148Z,99560.06
2018-12-22T17:56:19.566Z,99559.72
2018-12-22T17:58:51.069Z,99556.64
2018-12-22T18:01:22.512Z,99552.72
2018-12-22T18:03:53.709Z,99555.44
2018-12-22T18:06:24.414Z,99560.86
2018-12-22T18:08:55.510Z,99552.54
2018-12-22T18:11:26.623Z,99559.55
2018-12-22T18:13:58.048Z,99562.52
2018-12-22T18:16:29.753Z,99567.02
2018-12-22T18:19:01.314Z,99564.95
2018-12-22T18:21:33.419Z,99567.97
2018-12-22T18:24:04.340Z,99575.44
2018-12-22T18:26:35.437Z,99583.40
2018-12-22T18:29:07.464Z,99586.87
2018-12-22T18:31:39.341Z,99586.97
2018-12-22T18:34:10.340Z,99597.63
2018-12-22T18:36:41.701Z,99594.75
2018-12-22T18:39:12.854Z,99595.11
2018-12-22T18:41:46.087Z,99597.16
2018-12-22T18:44:17.335Z,99602.75
2018-12-22T18:46:49.030Z,99597.73
2018-12-22T18:49:20.155Z,99597.34
2018-12-22T18:51:51.050Z,99592.67
2018-12-22T18:54:21.823Z,99595.82
2018-12-22T18:56:53.239Z,99587.89
2018-12-22T18:59:25.312Z,99589.87
2018-12-22T19:01:57.356Z,99591.75
2018-12-22T19:04:29.249Z,99593.12
2018-12-22T19:07:00.599Z,99592.63
2018-12-22T19:09:34.779Z,99587.43
2018-12-22T19:12:14.650Z,99586.48
2018-12-22T19:14:54.488Z,99593.20
2018-12-22T19:17:26.677Z,99590.19
2018-12-22T19:20:02.860Z,99593.41
2018-12-22T19:22:34.091Z,99584.78
2018-12-22T19:25:05.492Z,99581.23
2018-12-22T19:27:37.067Z,99580.31
2018-12-22T19:30:09.447Z,99577.70
2018-12-22T19:32:41.336Z,99576.18
2018-12-22T19:35:12.926Z,99572.85
2018-12-22T19:37:46.256Z,99580.14
2018-12-22T19:40:20.503Z,99582.37
2018-12-22T19:42:53.666Z,99586.58
2018-12-22T19:45:25.384Z,99580.25
2018-12-22T19:47:57.986Z,99583.50
2018-12-22T19:50:29.955Z,99583.89
2018-12-22T19:53:01.977Z,99584.45
2018-12-22T19:55:33.705Z,99583.50
2018-12-22T19:58:05.885Z,99583.05
2018-12-22T20:00:38.552Z,99593.80
2018-12-22T20:03:11.081Z,99594.29
2018-12-22T20:05:43.705Z,99606.22
2018-12-22T20:08:16.861Z,99595.95
2018-12-22T20:10:49.530Z,99587.82
2018-12-22T20:13:22.903Z,99587.82
2018-12-22T20:15:56.030Z,99579.19
2018-12-22T20:18:29.023Z,99579.40
2018-12-22T20:21:01.641Z,99581.24
2018-12-22T20:23:35.118Z,99576.95
2018-12-22T20:26:07.867Z,99581.80
2018-12-22T20:28:42.871Z,99579.97
2018-12-22T20:31:16.072Z,99587.53
2018-12-22T20:33:48.451Z,99588.28
2018-12-22T20:36:21.662Z,99593.23
2018-12-22T20:38:57.299Z,99577.62
2018-12-22T20:41:30.869Z,99588.48
2018-12-22T20:44:03.879Z,99593.27
2018-12-22T20:46:37.151Z,99597.19
2018-12-22T20:49:10.239Z,99598.11
2018-12-22T20:51:43.583Z,99600.34
2018-12-22T20:54:16.543Z,99599.50
2018-12-22T20:56:49.694Z,99607.07
2018-12-22T20:59:21.778Z,99608.58
2018-12-22T21:01:54.722Z,99609.90
2018-12-22T21:04:26.978Z,99600.45
2018-12-22T21:06:58.814Z,99605.79
2018-12-22T21:09:31.957Z,99607.47
2018-12-22T21:12:05.184Z,99599.89
2018-12-22T21:14:37.444Z,99593.06
2018-12-22T21:17:10.305Z,99593.27
2018-12-22T21:19:43.336Z,99606.07
2018-12-22T21:22:17.074Z,99597.48
2018-12-22T21:24:49.583Z,99584.20
2018-12-22T21:27:21.332Z,99588.59
2018-12-22T21:29:52.599Z,99596.83
2018-12-22T21:32:25.093Z,99605.24
2018-12-22T21:34:55.947Z,99603.27
2018-12-22T21:37:27.199Z,99591.20
2018-12-22T21:39:59.194Z,99601.31
2018-12-22T21:42:31.712Z,99609.63
2018-12-22T21:45:03.895Z,99611.39
2018-12-22T21:47:35.236Z,99613.09
2018-12-22T21:50:09.098Z,99619.53
2018-12-22T21:52:40.361Z,99614.01
2018-12-22T21:55:13.940Z,99626.53
2018-12-22T21:57:45.491Z,99621.86
2018-12-22T22:00:17.176Z,99624.00
2018-12-22T22:02:48.865Z,99629.90
2018-12-22T22:05:21.148Z,99620.09
2018-12-22T22:07:52.906Z,99625.04
2018-12-22T22:10:25.402Z,99624.68
2018-12-22T22:12:56.712Z,99618.95
2018-12-22T22:15:29.027Z,99621.50
2018-12-22T22:18:01.736Z,99619.45
2018-12-22T22:20:33.900Z,99618.03
2018-12-22T22:23:06.900Z,99613.83
2018-12-22T22:25:38.498Z,99604.02
2018-12-22T22:28:09.581Z,99599.61
2018-12-22T22:30:40.626Z,99601.30
2018-12-22T22:33:11.957Z,99604.84
2018-12-22T22:35:43.803Z,99603.92
2018-12-22T22:38:14.795Z,99599.14
2018-12-22T22:40:45.936Z,99602.16
2018-12-22T22:43:17.059Z,99602.72
2018-12-22T22:45:48.904Z,99602.72
2018-12-22T22:48:20.170Z,99609.80
2018-12-22T22:50:53.011Z,99600.35
2018-12-22T22:53:24.416Z,99601.13
2018-12-22T22:55:57.229Z,99606.83
2018-12-22T22:58:29.914Z,99607.18
2018-12-22T23:01:02.143Z,99606.37
2018-12-22T23:03:33.666Z,99599.05
2018-12-22T23:06:06.428Z,99591.75
2018-12-22T23:08:37.848Z,99590.94
2018-12-22T23:11:10.830Z,99594.94
2018-12-22T23:13:42.630Z,99596.23
2018-12-22T23:16:14.216Z,99593.16
2018-12-22T23:18:45.569Z,99589.23
2018-12-22T23:21:17.541Z,99589.98
2018-12-22T23:23:49.183Z,99596.07
2018-12-22T23:26:20.811Z,99582.53
2018-12-22T23:28:52.095Z,99583.84
2018-12-22T23:31:25.106Z,99582.51
2018-12-22T23:33:56.870Z,99583.92
2018-12-22T23:36:28.360Z,99583.73
2018-12-22T23:39:00.327Z,99587.47
2018-12-22T23:41:31.858Z,99578.69
2018-12-22T23:44:03.333Z,99579.16
2018-12-22T23:46:35.845Z,99575.23
2018-12-22T23:49:07.587Z,99581.67
2018-12-22T23:51:39.633Z,99582.44
2018-12-22T23:54:10.819Z,99580.94
2018-12-22T23:56:42.223Z,99588.58
2018-12-22T23:59:13.579Z,99592.31
